sensor_id;sensor_type;location;lat;lon;timestamp;P1;durP1;ratioP1;P2;durP2;ratioP2
85210;SDS011;75591;44.496;0.166;2024-01-10T17:05:40;-1.00;;;-1.00;;
85210;SDS011;75591;44.496;0.166;2024-01-10T17:08:30;7.23;;;4.53;;
85210;SDS011;75591;44.496;0.166;2024-01-10T17:11:23;5.10;;;4.37;;
85210;SDS011;75591;44.496;0.166;2024-01-10T17:14:18;8.50;;;5.00;;
85210;SDS011;75591;44.496;0.166;2024-01-10T17:20:38;-1.00;;;-1.00;;
85210;SDS011;75591;44.496;0.166;2024-01-10T17:22:02;5.77;;;4.30;;
85210;SDS011;75591;44.496;0.166;2024-01-10T17:23:26;6.60;;;4.67;;
85210;SDS011;75591;44.496;0.166;2024-01-10T17:24:50;6.30;;;4.73;;
85210;SDS011;75591;44.496;0.166;2024-01-10T17:26:13;7.83;;;5.37;;
85210;SDS011;75591;44.496;0.166;2024-01-10T17:27:37;6.27;;;4.73;;
85210;SDS011;75591;44.496;0.166;2024-01-10T17:29:01;6.47;;;4.43;;
85210;SDS011;75591;44.496;0.166;2024-01-10T17:30:26;7.90;;;5.47;;
85210;SDS011;75591;44.496;0.166;2024-01-10T17:31:48;8.00;;;4.90;;
85210;SDS011;75591;44.496;0.166;2024-01-10T17:33:12;9.17;;;5.43;;
85210;SDS011;75591;44.496;0.166;2024-01-10T17:34:36;8.90;;;5.97;;
85210;SDS011;75591;44.496;0.166;2024-01-10T17:35:59;8.60;;;5.80;;
85210;SDS011;75591;44.496;0.166;2024-01-10T17:37:23;6.67;;;5.00;;
85210;SDS011;75591;44.496;0.166;2024-01-10T17:38:46;6.53;;;4.63;;
85210;SDS011;75591;44.496;0.166;2024-01-10T17:40:10;6.67;;;4.57;;
85210;SDS011;75591;44.496;0.166;2024-01-10T17:41:32;8.80;;;4.60;;
85210;SDS011;75591;44.496;0.166;2024-01-10T17:42:56;7.80;;;5.27;;
85210;SDS011;75591;44.496;0.166;2024-01-10T17:44:21;7.60;;;5.27;;
85210;SDS011;75591;44.496;0.166;2024-01-10T17:45:42;8.03;;;5.70;;
85210;SDS011;75591;44.496;0.166;2024-01-10T17:47:09;6.57;;;4.97;;
85210;SDS011;75591;44.496;0.166;2024-01-10T17:48:31;7.13;;;5.20;;
85210;SDS011;75591;44.496;0.166;2024-01-10T17:49:55;8.77;;;4.97;;
85210;SDS011;75591;44.496;0.166;2024-01-10T17:51:22;10.67;;;5.17;;
85210;SDS011;75591;44.496;0.166;2024-01-10T17:52:43;7.70;;;5.20;;
85210;SDS011;75591;44.496;0.166;2024-01-10T17:54:07;6.43;;;5.03;;
85210;SDS011;75591;44.496;0.166;2024-01-10T17:55:30;7.07;;;4.77;;
85210;SDS011;75591;44.496;0.166;2024-01-10T17:56:53;7.07;;;5.17;;
85210;SDS011;75591;44.496;0.166;2024-01-10T17:58:18;6.37;;;4.67;;
85210;SDS011;75591;44.496;0.166;2024-01-10T17:59:43;7.00;;;4.80;;
85210;SDS011;75591;44.496;0.166;2024-01-10T18:01:07;8.13;;;4.63;;
85210;SDS011;75591;44.496;0.166;2024-01-10T18:02:31;9.60;;;6.43;;
85210;SDS011;75591;44.496;0.166;2024-01-10T18:03:57;12.43;;;7.93;;
85210;SDS011;75591;44.496;0.166;2024-01-10T18:05:21;10.50;;;7.97;;
85210;SDS011;75591;44.496;0.166;2024-01-10T18:06:43;14.63;;;8.30;;
85210;SDS011;75591;44.496;0.166;2024-01-10T18:08:06;10.83;;;7.13;;
85210;SDS011;75591;44.496;0.166;2024-01-10T18:09:31;11.23;;;7.43;;
85210;SDS011;75591;44.496;0.166;2024-01-10T18:10:55;13.83;;;8.57;;
85210;SDS011;75591;44.496;0.166;2024-01-10T18:12:18;10.23;;;7.47;;
85210;SDS011;75591;44.496;0.166;2024-01-10T18:13:42;11.67;;;7.80;;
85210;SDS011;75591;44.496;0.166;2024-01-10T18:15:05;14.23;;;7.70;;
85210;SDS011;75591;44.496;0.166;2024-01-10T18:16:29;14.13;;;7.60;;
85210;SDS011;75591;44.496;0.166;2024-01-10T18:17:52;10.87;;;7.30;;
85210;SDS011;75591;44.496;0.166;2024-01-10T18:19:16;12.30;;;8.27;;
85210;SDS011;75591;44.496;0.166;2024-01-10T18:20:40;10.37;;;6.93;;
85210;SDS011;75591;44.496;0.166;2024-01-10T18:22:05;10.20;;;6.60;;
85210;SDS011;75591;44.496;0.166;2024-01-10T18:23:29;9.90;;;6.47;;
85210;SDS011;75591;44.496;0.166;2024-01-10T18:24:53;9.57;;;6.73;;
85210;SDS011;75591;44.496;0.166;2024-01-10T18:26:17;8.93;;;6.53;;
85210;SDS011;75591;44.496;0.166;2024-01-10T18:27:42;10.13;;;6.90;;
85210;SDS011;75591;44.496;0.166;2024-01-10T18:29:05;12.20;;;7.10;;
85210;SDS011;75591;44.496;0.166;2024-01-10T18:30:29;11.47;;;6.30;;
85210;SDS011;75591;44.496;0.166;2024-01-10T18:31:53;9.93;;;6.83;;
85210;SDS011;75591;44.496;0.166;2024-01-10T18:33:17;9.57;;;7.03;;
85210;SDS011;75591;44.496;0.166;2024-01-10T18:34:42;8.47;;;5.93;;
85210;SDS011;75591;44.496;0.166;2024-01-10T18:36:07;14.13;;;6.70;;
85210;SDS011;75591;44.496;0.166;2024-01-10T18:37:29;8.50;;;5.67;;
85210;SDS011;75591;44.496;0.166;2024-01-10T18:38:53;7.77;;;6.03;;
85210;SDS011;75591;44.496;0.166;2024-01-10T18:40:16;8.57;;;6.00;;
85210;SDS011;75591;44.496;0.166;2024-01-10T18:41:41;9.17;;;6.50;;
85210;SDS011;75591;44.496;0.166;2024-01-10T18:43:05;10.07;;;5.90;;
85210;SDS011;75591;44.496;0.166;2024-01-10T18:44:29;8.43;;;5.40;;
85210;SDS011;75591;44.496;0.166;2024-01-10T18:45:53;8.50;;;5.60;;
85210;SDS011;75591;44.496;0.166;2024-01-10T18:47:18;7.90;;;5.57;;
85210;SDS011;75591;44.496;0.166;2024-01-10T18:48:42;8.80;;;5.67;;
85210;SDS011;75591;44.496;0.166;2024-01-10T18:50:06;8.13;;;6.00;;
85210;SDS011;75591;44.496;0.166;2024-01-10T18:51:29;7.33;;;5.60;;
85210;SDS011;75591;44.496;0.166;2024-01-10T18:52:52;11.43;;;6.10;;
85210;SDS011;75591;44.496;0.166;2024-01-10T18:54:15;8.03;;;5.57;;
85210;SDS011;75591;44.496;0.166;2024-01-10T18:55:40;7.23;;;5.40;;
85210;SDS011;75591;44.496;0.166;2024-01-10T18:57:09;7.23;;;5.23;;
85210;SDS011;75591;44.496;0.166;2024-01-10T18:58:28;8.00;;;5.20;;
85210;SDS011;75591;44.496;0.166;2024-01-10T18:59:51;8.90;;;5.40;;
85210;SDS011;75591;44.496;0.166;2024-01-10T19:01:15;7.57;;;5.83;;
85210;SDS011;75591;44.496;0.166;2024-01-10T19:02:39;10.33;;;5.83;;
85210;SDS011;75591;44.496;0.166;2024-01-10T19:04:02;6.43;;;4.93;;
85210;SDS011;75591;44.496;0.166;2024-01-10T19:05:25;8.17;;;5.60;;
85210;SDS011;75591;44.496;0.166;2024-01-10T19:06:54;9.07;;;5.87;;
85210;SDS011;75591;44.496;0.166;2024-01-10T19:08:15;7.07;;;5.40;;
85210;SDS011;75591;44.496;0.166;2024-01-10T19:09:38;9.20;;;5.83;;
85210;SDS011;75591;44.496;0.166;2024-01-10T19:11:05;6.10;;;5.50;;
85210;SDS011;75591;44.496;0.166;2024-01-10T19:12:28;5.97;;;4.57;;
85210;SDS011;75591;44.496;0.166;2024-01-10T19:13:51;7.23;;;5.10;;
85210;SDS011;75591;44.496;0.166;2024-01-10T19:15:15;6.27;;;4.80;;
85210;SDS011;75591;44.496;0.166;2024-01-10T19:16:42;6.80;;;5.07;;
85210;SDS011;75591;44.496;0.166;2024-01-10T19:18:02;8.10;;;5.37;;
85210;SDS011;75591;44.496;0.166;2024-01-10T19:19:26;7.07;;;5.13;;
85210;SDS011;75591;44.496;0.166;2024-01-10T19:20:49;8.57;;;5.30;;
85210;SDS011;75591;44.496;0.166;2024-01-10T19:22:12;6.97;;;5.43;;
85210;SDS011;75591;44.496;0.166;2024-01-10T19:23:36;9.70;;;6.33;;
85210;SDS011;75591;44.496;0.166;2024-01-10T19:24:58;6.90;;;4.93;;
85210;SDS011;75591;44.496;0.166;2024-01-10T19:26:21;8.50;;;5.33;;
85210;SDS011;75591;44.496;0.166;2024-01-10T19:27:45;7.33;;;5.47;;
85210;SDS011;75591;44.496;0.166;2024-01-10T19:29:08;7.57;;;5.33;;
85210;SDS011;75591;44.496;0.166;2024-01-10T19:30:32;6.23;;;4.90;;
85210;SDS011;75591;44.496;0.166;2024-01-10T19:31:55;7.43;;;5.30;;
85210;SDS011;75591;44.496;0.166;2024-01-10T19:33:18;6.90;;;5.13;;
85210;SDS011;75591;44.496;0.166;2024-01-10T19:34:40;7.90;;;5.40;;
85210;SDS011;75591;44.496;0.166;2024-01-10T19:36:06;7.13;;;5.07;;
85210;SDS011;75591;44.496;0.166;2024-01-10T19:37:30;7.40;;;5.20;;
85210;SDS011;75591;44.496;0.166;2024-01-10T19:38:54;8.33;;;6.00;;
85210;SDS011;75591;44.496;0.166;2024-01-10T19:40:18;7.10;;;5.67;;
85210;SDS011;75591;44.496;0.166;2024-01-10T19:41:42;7.10;;;4.90;;
85210;SDS011;75591;44.496;0.166;2024-01-10T19:43:06;7.90;;;5.87;;
85210;SDS011;75591;44.496;0.166;2024-01-10T19:44:28;6.70;;;4.97;;
85210;SDS011;75591;44.496;0.166;2024-01-10T19:45:51;9.70;;;5.57;;
85210;SDS011;75591;44.496;0.166;2024-01-10T19:47:14;7.23;;;5.03;;
85210;SDS011;75591;44.496;0.166;2024-01-10T19:48:38;8.20;;;4.87;;
85210;SDS011;75591;44.496;0.166;2024-01-10T19:50:02;6.50;;;5.13;;
85210;SDS011;75591;44.496;0.166;2024-01-10T19:51:25;6.40;;;5.13;;
85210;SDS011;75591;44.496;0.166;2024-01-10T19:52:48;8.23;;;5.23;;
85210;SDS011;75591;44.496;0.166;2024-01-10T19:54:12;6.70;;;5.20;;
85210;SDS011;75591;44.496;0.166;2024-01-10T19:55:36;8.27;;;5.40;;
85210;SDS011;75591;44.496;0.166;2024-01-10T19:56:59;7.60;;;5.20;;
85210;SDS011;75591;44.496;0.166;2024-01-10T19:58:23;7.03;;;4.97;;
85210;SDS011;75591;44.496;0.166;2024-01-10T19:59:47;6.67;;;4.77;;
85210;SDS011;75591;44.496;0.166;2024-01-10T20:01:11;7.90;;;4.97;;
85210;SDS011;75591;44.496;0.166;2024-01-10T20:02:35;8.60;;;5.17;;
85210;SDS011;75591;44.496;0.166;2024-01-10T20:03:59;6.90;;;4.77;;
85210;SDS011;75591;44.496;0.166;2024-01-10T20:05:23;7.20;;;5.00;;
85210;SDS011;75591;44.496;0.166;2024-01-10T20:06:46;9.60;;;5.03;;
85210;SDS011;75591;44.496;0.166;2024-01-10T20:08:10;6.80;;;5.00;;
85210;SDS011;75591;44.496;0.166;2024-01-10T20:09:34;7.53;;;5.33;;
85210;SDS011;75591;44.496;0.166;2024-01-10T20:10:57;6.83;;;5.00;;
85210;SDS011;75591;44.496;0.166;2024-01-10T20:12:21;5.00;;;4.30;;
85210;SDS011;75591;44.496;0.166;2024-01-10T20:13:42;6.33;;;4.57;;
85210;SDS011;75591;44.496;0.166;2024-01-10T20:15:06;7.30;;;4.90;;
85210;SDS011;75591;44.496;0.166;2024-01-10T20:16:28;6.43;;;4.57;;
85210;SDS011;75591;44.496;0.166;2024-01-10T20:17:52;7.53;;;4.77;;
85210;SDS011;75591;44.496;0.166;2024-01-10T20:19:17;7.20;;;4.80;;
85210;SDS011;75591;44.496;0.166;2024-01-10T20:20:41;6.93;;;4.80;;
85210;SDS011;75591;44.496;0.166;2024-01-10T20:22:04;5.93;;;4.93;;
85210;SDS011;75591;44.496;0.166;2024-01-10T20:23:29;7.00;;;4.87;;
85210;SDS011;75591;44.496;0.166;2024-01-10T20:24:52;5.33;;;4.63;;
85210;SDS011;75591;44.496;0.166;2024-01-10T20:26:15;5.63;;;4.57;;
85210;SDS011;75591;44.496;0.166;2024-01-10T20:27:39;9.00;;;5.00;;
85210;SDS011;75591;44.496;0.166;2024-01-10T20:29:03;6.97;;;4.70;;
85210;SDS011;75591;44.496;0.166;2024-01-10T20:30:26;6.97;;;4.43;;
85210;SDS011;75591;44.496;0.166;2024-01-10T20:31:49;7.63;;;4.90;;
85210;SDS011;75591;44.496;0.166;2024-01-10T20:33:13;5.07;;;4.47;;
85210;SDS011;75591;44.496;0.166;2024-01-10T20:34:38;5.63;;;4.47;;
85210;SDS011;75591;44.496;0.166;2024-01-10T20:36:02;5.37;;;4.73;;
85210;SDS011;75591;44.496;0.166;2024-01-10T20:37:26;6.93;;;4.77;;
85210;SDS011;75591;44.496;0.166;2024-01-10T20:38:49;6.80;;;4.57;;
85210;SDS011;75591;44.496;0.166;2024-01-10T20:40:15;7.47;;;4.60;;
85210;SDS011;75591;44.496;0.166;2024-01-10T20:41:38;5.63;;;4.47;;
85210;SDS011;75591;44.496;0.166;2024-01-10T20:43:02;6.60;;;4.30;;
85210;SDS011;75591;44.496;0.166;2024-01-10T20:44:24;5.23;;;4.57;;
85210;SDS011;75591;44.496;0.166;2024-01-10T20:45:50;7.63;;;4.97;;
85210;SDS011;75591;44.496;0.166;2024-01-10T20:47:15;6.13;;;4.60;;
85210;SDS011;75591;44.496;0.166;2024-01-10T20:48:36;6.90;;;4.87;;
85210;SDS011;75591;44.496;0.166;2024-01-10T20:50:01;7.50;;;4.53;;
85210;SDS011;75591;44.496;0.166;2024-01-10T20:51:25;5.30;;;4.47;;
85210;SDS011;75591;44.496;0.166;2024-01-10T20:52:48;6.53;;;4.67;;
85210;SDS011;75591;44.496;0.166;2024-01-10T20:54:12;11.47;;;6.33;;
85210;SDS011;75591;44.496;0.166;2024-01-10T20:55:36;7.73;;;4.83;;
85210;SDS011;75591;44.496;0.166;2024-01-10T20:56:59;6.83;;;4.90;;
85210;SDS011;75591;44.496;0.166;2024-01-10T20:58:22;7.87;;;5.07;;
85210;SDS011;75591;44.496;0.166;2024-01-10T20:59:46;7.63;;;4.93;;
85210;SDS011;75591;44.496;0.166;2024-01-10T21:01:10;7.73;;;5.23;;
85210;SDS011;75591;44.496;0.166;2024-01-10T21:02:33;6.17;;;4.70;;
85210;SDS011;75591;44.496;0.166;2024-01-10T21:03:57;5.57;;;4.60;;
85210;SDS011;75591;44.496;0.166;2024-01-10T21:05:21;6.73;;;4.77;;
85210;SDS011;75591;44.496;0.166;2024-01-10T21:06:43;8.03;;;4.90;;
85210;SDS011;75591;44.496;0.166;2024-01-10T21:08:07;8.93;;;5.27;;
85210;SDS011;75591;44.496;0.166;2024-01-10T21:09:31;7.30;;;4.93;;
85210;SDS011;75591;44.496;0.166;2024-01-10T21:10:53;5.63;;;4.53;;
85210;SDS011;75591;44.496;0.166;2024-01-10T21:12:17;8.40;;;5.00;;
85210;SDS011;75591;44.496;0.166;2024-01-10T21:13:42;7.23;;;4.63;;
85210;SDS011;75591;44.496;0.166;2024-01-10T21:15:05;6.83;;;4.77;;
85210;SDS011;75591;44.496;0.166;2024-01-10T21:16:28;5.90;;;4.20;;
85210;SDS011;75591;44.496;0.166;2024-01-10T21:17:52;8.73;;;4.80;;
85210;SDS011;75591;44.496;0.166;2024-01-10T21:19:17;6.47;;;4.37;;
85210;SDS011;75591;44.496;0.166;2024-01-10T21:20:39;6.10;;;4.30;;
85210;SDS011;75591;44.496;0.166;2024-01-10T21:22:04;5.40;;;4.60;;
85210;SDS011;75591;44.496;0.166;2024-01-10T21:23:28;5.97;;;4.30;;
85210;SDS011;75591;44.496;0.166;2024-01-10T21:24:54;5.53;;;4.67;;
85210;SDS011;75591;44.496;0.166;2024-01-10T21:26:17;5.70;;;4.37;;
85210;SDS011;75591;44.496;0.166;2024-01-10T21:27:41;5.40;;;4.27;;
85210;SDS011;75591;44.496;0.166;2024-01-10T21:29:05;9.27;;;5.00;;
85210;SDS011;75591;44.496;0.166;2024-01-10T21:30:28;6.63;;;4.80;;
85210;SDS011;75591;44.496;0.166;2024-01-10T21:31:53;4.90;;;3.53;;
85210;SDS011;75591;44.496;0.166;2024-01-10T21:33:16;7.17;;;5.03;;
85210;SDS011;75591;44.496;0.166;2024-01-10T21:34:38;6.17;;;4.43;;
85210;SDS011;75591;44.496;0.166;2024-01-10T21:36:03;7.00;;;4.97;;
85210;SDS011;75591;44.496;0.166;2024-01-10T21:37:25;6.47;;;4.50;;
85210;SDS011;75591;44.496;0.166;2024-01-10T21:38:49;7.40;;;5.17;;
85210;SDS011;75591;44.496;0.166;2024-01-10T21:40:12;7.17;;;4.87;;
85210;SDS011;75591;44.496;0.166;2024-01-10T21:41:36;8.47;;;4.93;;
85210;SDS011;75591;44.496;0.166;2024-01-10T21:42:59;7.47;;;4.77;;
85210;SDS011;75591;44.496;0.166;2024-01-10T21:44:24;6.60;;;4.77;;
85210;SDS011;75591;44.496;0.166;2024-01-10T21:47:12;5.77;;;4.63;;
85210;SDS011;75591;44.496;0.166;2024-01-10T21:48:37;7.53;;;4.50;;
85210;SDS011;75591;44.496;0.166;2024-01-10T21:50:00;5.63;;;4.60;;
85210;SDS011;75591;44.496;0.166;2024-01-10T21:51:23;7.37;;;5.03;;
85210;SDS011;75591;44.496;0.166;2024-01-10T21:52:47;8.17;;;5.03;;
85210;SDS011;75591;44.496;0.166;2024-01-10T21:54:12;8.83;;;4.97;;
85210;SDS011;75591;44.496;0.166;2024-01-10T21:55:37;6.07;;;4.37;;
85210;SDS011;75591;44.496;0.166;2024-01-10T21:56:59;7.10;;;4.40;;
85210;SDS011;75591;44.496;0.166;2024-01-10T21:58:25;6.57;;;4.80;;
85210;SDS011;75591;44.496;0.166;2024-01-10T21:59:48;6.97;;;4.90;;
85210;SDS011;75591;44.496;0.166;2024-01-10T22:01:12;5.80;;;4.70;;
85210;SDS011;75591;44.496;0.166;2024-01-10T22:02:34;6.93;;;4.43;;
85210;SDS011;75591;44.496;0.166;2024-01-10T22:03:58;6.70;;;4.77;;
85210;SDS011;75591;44.496;0.166;2024-01-10T22:05:21;5.83;;;4.73;;
85210;SDS011;75591;44.496;0.166;2024-01-10T22:06:44;6.60;;;4.93;;
85210;SDS011;75591;44.496;0.166;2024-01-10T22:08:10;7.90;;;5.07;;
85210;SDS011;75591;44.496;0.166;2024-01-10T22:09:33;7.00;;;5.03;;
85210;SDS011;75591;44.496;0.166;2024-01-10T22:10:57;5.33;;;4.33;;
85210;SDS011;75591;44.496;0.166;2024-01-10T22:12:25;6.50;;;4.40;;
85210;SDS011;75591;44.496;0.166;2024-01-10T22:13:45;5.00;;;4.50;;
85210;SDS011;75591;44.496;0.166;2024-01-10T22:15:09;7.60;;;4.73;;
85210;SDS011;75591;44.496;0.166;2024-01-10T22:16:34;6.27;;;5.27;;
85210;SDS011;75591;44.496;0.166;2024-01-10T22:17:58;7.73;;;5.53;;
85210;SDS011;75591;44.496;0.166;2024-01-10T22:19:20;6.83;;;5.10;;
85210;SDS011;75591;44.496;0.166;2024-01-10T22:20:43;7.03;;;4.50;;
85210;SDS011;75591;44.496;0.166;2024-01-10T22:22:07;6.03;;;5.20;;
85210;SDS011;75591;44.496;0.166;2024-01-10T22:23:30;7.17;;;4.90;;
85210;SDS011;75591;44.496;0.166;2024-01-10T22:24:53;6.90;;;4.67;;
85210;SDS011;75591;44.496;0.166;2024-01-10T22:26:17;7.60;;;5.20;;
85210;SDS011;75591;44.496;0.166;2024-01-10T22:27:40;7.40;;;5.17;;
85210;SDS011;75591;44.496;0.166;2024-01-10T22:29:04;8.10;;;5.30;;
85210;SDS011;75591;44.496;0.166;2024-01-10T22:30:28;6.63;;;4.87;;
85210;SDS011;75591;44.496;0.166;2024-01-10T22:31:52;7.50;;;5.03;;
85210;SDS011;75591;44.496;0.166;2024-01-10T22:33:16;7.60;;;5.10;;
85210;SDS011;75591;44.496;0.166;2024-01-10T22:34:41;7.97;;;5.40;;
85210;SDS011;75591;44.496;0.166;2024-01-10T22:36:05;7.07;;;4.53;;
85210;SDS011;75591;44.496;0.166;2024-01-10T22:37:28;6.07;;;4.60;;
85210;SDS011;75591;44.496;0.166;2024-01-10T22:38:52;6.07;;;4.87;;
85210;SDS011;75591;44.496;0.166;2024-01-10T22:40:16;6.70;;;4.53;;
85210;SDS011;75591;44.496;0.166;2024-01-10T22:41:39;7.13;;;5.33;;
85210;SDS011;75591;44.496;0.166;2024-01-10T22:43:02;7.40;;;5.30;;
85210;SDS011;75591;44.496;0.166;2024-01-10T22:44:25;7.23;;;5.37;;
85210;SDS011;75591;44.496;0.166;2024-01-10T22:45:49;6.70;;;4.80;;
85210;SDS011;75591;44.496;0.166;2024-01-10T22:47:13;8.70;;;6.17;;
85210;SDS011;75591;44.496;0.166;2024-01-10T22:48:36;7.77;;;5.33;;
85210;SDS011;75591;44.496;0.166;2024-01-10T22:49:59;7.83;;;4.93;;
85210;SDS011;75591;44.496;0.166;2024-01-10T22:51:24;7.03;;;4.67;;
85210;SDS011;75591;44.496;0.166;2024-01-10T22:52:48;8.83;;;5.43;;
85210;SDS011;75591;44.496;0.166;2024-01-10T22:54:11;8.40;;;5.47;;
85210;SDS011;75591;44.496;0.166;2024-01-10T22:55:35;7.40;;;5.23;;
85210;SDS011;75591;44.496;0.166;2024-01-10T22:56:58;8.00;;;5.13;;
85210;SDS011;75591;44.496;0.166;2024-01-10T22:58:22;7.43;;;5.30;;
85210;SDS011;75591;44.496;0.166;2024-01-10T22:59:46;7.00;;;5.40;;
85210;SDS011;75591;44.496;0.166;2024-01-10T23:01:09;7.97;;;5.40;;
85210;SDS011;75591;44.496;0.166;2024-01-10T23:02:33;7.63;;;4.73;;
85210;SDS011;75591;44.496;0.166;2024-01-10T23:03:55;6.30;;;5.13;;
85210;SDS011;75591;44.496;0.166;2024-01-10T23:05:19;7.13;;;4.97;;
85210;SDS011;75591;44.496;0.166;2024-01-10T23:06:43;8.73;;;6.10;;
85210;SDS011;75591;44.496;0.166;2024-01-10T23:08:08;8.57;;;5.30;;
85210;SDS011;75591;44.496;0.166;2024-01-10T23:09:33;8.40;;;5.63;;
85210;SDS011;75591;44.496;0.166;2024-01-10T23:10:57;7.10;;;5.40;;
85210;SDS011;75591;44.496;0.166;2024-01-10T23:12:21;7.40;;;4.73;;
85210;SDS011;75591;44.496;0.166;2024-01-10T23:13:44;9.33;;;5.73;;
85210;SDS011;75591;44.496;0.166;2024-01-10T23:15:09;6.03;;;5.23;;
85210;SDS011;75591;44.496;0.166;2024-01-10T23:16:31;8.07;;;5.80;;
85210;SDS011;75591;44.496;0.166;2024-01-10T23:17:55;8.07;;;5.43;;
85210;SDS011;75591;44.496;0.166;2024-01-10T23:19:19;7.87;;;5.43;;
85210;SDS011;75591;44.496;0.166;2024-01-10T23:20:42;7.20;;;5.00;;
85210;SDS011;75591;44.496;0.166;2024-01-10T23:22:07;8.80;;;6.43;;
85210;SDS011;75591;44.496;0.166;2024-01-10T23:23:31;9.93;;;6.00;;
85210;SDS011;75591;44.496;0.166;2024-01-10T23:24:55;8.77;;;6.00;;
85210;SDS011;75591;44.496;0.166;2024-01-10T23:26:18;7.87;;;5.20;;
85210;SDS011;75591;44.496;0.166;2024-01-10T23:27:41;7.87;;;6.00;;
85210;SDS011;75591;44.496;0.166;2024-01-10T23:29:06;8.57;;;6.17;;
85210;SDS011;75591;44.496;0.166;2024-01-10T23:30:30;8.57;;;5.97;;
85210;SDS011;75591;44.496;0.166;2024-01-10T23:31:54;8.40;;;6.33;;
85210;SDS011;75591;44.496;0.166;2024-01-10T23:33:17;9.37;;;6.03;;
85210;SDS011;75591;44.496;0.166;2024-01-10T23:34:42;8.07;;;5.47;;
85210;SDS011;75591;44.496;0.166;2024-01-10T23:36:06;8.33;;;6.30;;
85210;SDS011;75591;44.496;0.166;2024-01-10T23:37:30;8.03;;;5.70;;
85210;SDS011;75591;44.496;0.166;2024-01-10T23:38:54;9.53;;;5.20;;
85210;SDS011;75591;44.496;0.166;2024-01-10T23:40:17;8.27;;;5.53;;
85210;SDS011;75591;44.496;0.166;2024-01-10T23:41:46;10.03;;;5.97;;
85210;SDS011;75591;44.496;0.166;2024-01-10T23:43:05;7.80;;;5.80;;
85210;SDS011;75591;44.496;0.166;2024-01-10T23:44:30;7.10;;;5.23;;
85210;SDS011;75591;44.496;0.166;2024-01-10T23:45:53;6.27;;;4.60;;
85210;SDS011;75591;44.496;0.166;2024-01-10T23:47:18;7.73;;;5.10;;
85210;SDS011;75591;44.496;0.166;2024-01-10T23:48:42;9.53;;;5.40;;
85210;SDS011;75591;44.496;0.166;2024-01-10T23:50:07;7.40;;;5.27;;
85210;SDS011;75591;44.496;0.166;2024-01-10T23:51:30;6.67;;;4.83;;
85210;SDS011;75591;44.496;0.166;2024-01-10T23:52:53;6.50;;;5.00;;
85210;SDS011;75591;44.496;0.166;2024-01-10T23:54:16;6.73;;;5.00;;
85210;SDS011;75591;44.496;0.166;2024-01-10T23:55:40;6.20;;;5.23;;
85210;SDS011;75591;44.496;0.166;2024-01-10T23:57:04;6.37;;;4.47;;
85210;SDS011;75591;44.496;0.166;2024-01-10T23:58:27;7.77;;;5.90;;
85210;SDS011;75591;44.496;0.166;2024-01-10T23:59:51;7.83;;;5.17;;
